createdAt,value
2019-01-04T00:01:33.585Z,102273.02
2019-01-04T00:04:27.323Z,102276.00
2019-01-04T00:07:18.018Z,102273.66
2019-01-04T00:10:07.925Z,102283.16
2019-01-04T00:12:58.275Z,102282.19
2019-01-04T00:15:48.502Z,102290.84
2019-01-04T00:18:38.683Z,102290.06
2019-01-04T00:21:28.336Z,102284.80
2019-01-04T00:24:18.224Z,102285.73
2019-01-04T00:27:09.420Z,102281.02
2019-01-04T00:29:59.205Z,102279.02
2019-01-04T00:32:49.083Z,102283.12
2019-01-04T00:35:39.064Z,102286.55
2019-01-04T00:38:29.318Z,102289.70
2019-01-04T00:41:19.414Z,102289.48
2019-01-04T00:44:09.465Z,102295.67
2019-01-04T00:47:01.453Z,102306.48
2019-01-04T00:49:51.366Z,102308.44
2019-01-04T00:52:41.360Z,102306.00
2019-01-04T00:56:29.247Z,102307.11
2019-01-04T01:00:23.100Z,102303.88
2019-01-04T01:04:01.698Z,102303.50
2019-01-04T01:07:45.874Z,102307.35
2019-01-04T01:11:42.226Z,102302.97
2019-01-04T01:15:27.267Z,102308.86
2019-01-04T01:19:01.379Z,102308.94
2019-01-04T01:22:40.576Z,102305.70
2019-01-04T01:26:18.009Z,102312.95
2019-01-04T01:29:57.984Z,102304.13
2019-01-04T01:33:31.726Z,102299.78
2019-01-04T01:37:13.935Z,102288.80
2019-01-04T01:40:53.737Z,102290.52
2019-01-04T01:44:59.939Z,102292.89
2019-01-04T01:47:59.437Z,102294.12
2019-01-04T01:51:53.147Z,102286.73
2019-01-04T01:54:43.157Z,102291.03
2019-01-04T01:57:32.825Z,102289.55
2019-01-04T02:00:23.161Z,102291.55
2019-01-04T02:03:13.196Z,102304.66
2019-01-04T02:06:03.346Z,102306.92
2019-01-04T02:08:53.110Z,102309.05
2019-01-04T02:11:43.169Z,102299.20
2019-01-04T02:14:33.361Z,102300.24
2019-01-04T02:17:23.648Z,102303.36
2019-01-04T02:20:13.610Z,102304.98
2019-01-04T02:23:03.665Z,102306.47
2019-01-04T02:25:53.428Z,102308.37
2019-01-04T02:28:43.830Z,102301.20
2019-01-04T02:31:33.824Z,102299.00
2019-01-04T02:34:23.641Z,102294.03
2019-01-04T02:37:14.011Z,102300.71
2019-01-04T02:40:04.322Z,102288.83
2019-01-04T02:42:54.317Z,102290.42
2019-01-04T02:45:43.892Z,102285.64
2019-01-04T02:48:33.952Z,102288.43
2019-01-04T02:51:23.695Z,102282.31
2019-01-04T02:54:13.766Z,102278.45
2019-01-04T02:57:03.549Z,102283.80
2019-01-04T02:59:53.485Z,102276.96
2019-01-04T03:02:43.146Z,102283.50
2019-01-04T03:05:33.350Z,102270.50
2019-01-04T03:08:23.524Z,102274.63
2019-01-04T03:11:13.205Z,102272.47
2019-01-04T03:14:02.950Z,102268.87
2019-01-04T03:16:53.121Z,102270.31
2019-01-04T03:19:43.002Z,102263.42
2019-01-04T03:22:33.294Z,102264.16
2019-01-04T03:25:22.904Z,102270.20
2019-01-04T03:28:12.839Z,102264.00
2019-01-04T03:31:02.752Z,102256.95
2019-01-04T03:33:54.187Z,102256.25
2019-01-04T03:36:44.059Z,102250.46
2019-01-04T03:39:34.023Z,102249.49
2019-01-04T03:42:23.902Z,102248.86
2019-01-04T03:45:13.659Z,102246.97
2019-01-04T03:48:03.785Z,102244.00
2019-01-04T03:50:53.835Z,102249.98
2019-01-04T03:53:43.887Z,102244.85
2019-01-04T03:56:33.773Z,102241.25
2019-01-04T03:59:24.112Z,102235.57
2019-01-04T04:02:14.107Z,102233.09
2019-01-04T04:05:04.608Z,102233.61
2019-01-04T04:07:54.685Z,102231.90
2019-01-04T04:10:45.079Z,102230.15
2019-01-04T04:13:34.735Z,102225.44
2019-01-04T04:16:24.879Z,102223.47
2019-01-04T04:19:15.046Z,102225.50
2019-01-04T04:22:05.172Z,102213.70
2019-01-04T04:24:55.464Z,102209.69
2019-01-04T04:27:45.240Z,102205.41
2019-01-04T04:30:34.939Z,102200.91
2019-01-04T04:33:25.053Z,102197.88
2019-01-04T04:36:15.120Z,102201.40
2019-01-04T04:39:07.221Z,102196.91
2019-01-04T04:41:56.924Z,102186.55
2019-01-04T04:44:46.863Z,102179.37
2019-01-04T04:47:36.707Z,102184.45
2019-01-04T04:50:26.512Z,102176.13
2019-01-04T04:53:16.053Z,102163.77
2019-01-04T04:56:06.543Z,102165.95
2019-01-04T04:58:56.046Z,102165.80
2019-01-04T05:01:46.155Z,102161.30
2019-01-04T05:04:35.914Z,102168.96
2019-01-04T05:07:26.353Z,102171.00
2019-01-04T05:10:16.500Z,102175.38
2019-01-04T05:13:06.316Z,102172.22
2019-01-04T05:15:57.701Z,102153.50
2019-01-04T05:18:47.102Z,102154.47
2019-01-04T05:21:36.932Z,102152.65
2019-01-04T05:24:27.115Z,102148.16
2019-01-04T05:27:17.193Z,102141.95
2019-01-04T05:30:07.790Z,102141.25
2019-01-04T05:32:58.832Z,102142.44
2019-01-04T05:35:49.119Z,102144.95
2019-01-04T05:38:39.141Z,102152.65
2019-01-04T05:41:28.954Z,102149.82
2019-01-04T05:44:18.661Z,102156.78
2019-01-04T05:47:08.509Z,102148.76
2019-01-04T05:49:58.505Z,102151.80
2019-01-04T05:52:48.699Z,102158.75
2019-01-04T05:55:38.585Z,102150.88
2019-01-04T05:58:28.687Z,102150.24
2019-01-04T06:01:18.761Z,102147.94
2019-01-04T06:04:09.358Z,102142.92
2019-01-04T06:06:59.120Z,102145.27
2019-01-04T06:09:49.280Z,102148.91
2019-01-04T06:12:39.493Z,102137.88
2019-01-04T06:15:29.316Z,102143.41
2019-01-04T06:18:18.917Z,102140.25
2019-01-04T06:21:08.897Z,102140.40
2019-01-04T06:23:59.059Z,102142.44
2019-01-04T06:26:49.218Z,102143.29
2019-01-04T06:29:38.543Z,102149.13
2019-01-04T06:32:28.615Z,102144.27
2019-01-04T06:35:18.587Z,102144.75
2019-01-04T06:38:08.880Z,102142.28
2019-01-04T06:40:58.266Z,102136.94
2019-01-04T06:43:48.375Z,102142.98
2019-01-04T06:47:17.763Z,102141.31
2019-01-04T06:50:09.399Z,102136.67
2019-01-04T06:52:58.357Z,102149.67
2019-01-04T06:55:57.828Z,102149.77
2019-01-04T06:58:48.842Z,102156.14
2019-01-04T07:01:38.699Z,102159.67
2019-01-04T07:04:28.249Z,102158.00
2019-01-04T07:07:18.349Z,102159.67
2019-01-04T07:10:08.936Z,102160.46
2019-01-04T07:12:59.178Z,102150.58
2019-01-04T07:15:49.112Z,102150.09
2019-01-04T07:18:39.709Z,102146.08
2019-01-04T07:21:29.809Z,102141.59
2019-01-04T07:24:19.765Z,102144.75
2019-01-04T07:27:09.707Z,102143.78
2019-01-04T07:29:59.630Z,102143.47
2019-01-04T07:32:49.888Z,102147.36
2019-01-04T07:35:40.139Z,102146.57
2019-01-04T07:38:30.351Z,102150.67
2019-01-04T07:41:20.277Z,102154.38
2019-01-04T07:44:10.100Z,102141.86
2019-01-04T07:46:59.357Z,102137.05
2019-01-04T07:49:49.422Z,102131.64
2019-01-04T07:52:39.335Z,102122.00
2019-01-04T07:55:29.337Z,102129.45
2019-01-04T07:58:19.483Z,102127.63
2019-01-04T08:01:09.316Z,102131.52
2019-01-04T08:03:59.439Z,102135.37
2019-01-04T08:06:49.743Z,102119.66
2019-01-04T08:09:39.508Z,102124.95
2019-01-04T08:12:29.249Z,102118.69
2019-01-04T08:15:19.165Z,102114.94
2019-01-04T08:18:08.994Z,102120.16
2019-01-04T08:20:58.536Z,102110.80
2019-01-04T08:23:48.391Z,102100.38
2019-01-04T08:26:38.347Z,102101.35
2019-01-04T08:29:28.256Z,102105.45
2019-01-04T08:32:18.092Z,102100.66
2019-01-04T08:35:08.370Z,102108.45
2019-01-04T08:37:58.296Z,102113.48
2019-01-04T08:40:48.535Z,102102.78
2019-01-04T08:43:38.300Z,102104.29
2019-01-04T08:46:28.242Z,102094.02
2019-01-04T08:49:18.572Z,102093.41
2019-01-04T08:52:08.457Z,102079.39
2019-01-04T08:54:58.604Z,102072.50
2019-01-04T08:57:48.327Z,102070.23
2019-01-04T09:00:38.251Z,102054.02
2019-01-04T09:03:28.347Z,102061.36
2019-01-04T09:06:18.385Z,102063.72
2019-01-04T09:09:09.325Z,102062.74
2019-01-04T09:11:58.983Z,102069.80
2019-01-04T09:14:49.159Z,102059.38
2019-01-04T09:17:39.423Z,102052.94
2019-01-04T09:20:28.949Z,102052.34
2019-01-04T09:23:18.546Z,102052.55
2019-01-04T09:26:08.701Z,102051.33
2019-01-04T09:28:58.576Z,102056.73
2019-01-04T09:31:48.562Z,102047.41
2019-01-04T09:34:38.800Z,102060.59
2019-01-04T09:37:28.630Z,102062.82
2019-01-04T09:40:18.971Z,102063.67
2019-01-04T09:43:12.129Z,102060.45
2019-01-04T09:46:01.794Z,102061.16
2019-01-04T09:48:51.702Z,102044.39
2019-01-04T09:51:41.910Z,102035.59
2019-01-04T09:54:31.736Z,102028.20
2019-01-04T09:57:23.626Z,102018.58
2019-01-04T10:00:14.726Z,102002.22
2019-01-04T10:03:04.635Z,101994.19
2019-01-04T10:05:54.666Z,101996.09
2019-01-04T10:08:45.036Z,101991.02
2019-01-04T10:11:35.445Z,101985.41
2019-01-04T10:14:25.459Z,101980.56
2019-01-04T10:17:15.497Z,101973.73
2019-01-04T10:20:06.030Z,101968.41
2019-01-04T10:22:56.461Z,101954.19
2019-01-04T10:25:46.671Z,101949.16
2019-01-04T10:28:36.896Z,101941.23
2019-01-04T10:31:26.948Z,101935.59
2019-01-04T10:34:16.481Z,101928.62
2019-01-04T10:37:06.857Z,101915.55
2019-01-04T10:39:57.208Z,101913.52
2019-01-04T10:42:47.571Z,101901.47
2019-01-04T10:45:37.914Z,101900.31
2019-01-04T10:48:27.575Z,101895.72
2019-01-04T10:51:17.577Z,101883.66
2019-01-04T10:54:07.443Z,101879.34
2019-01-04T10:56:57.454Z,101871.80
2019-01-04T10:59:47.685Z,101873.02
2019-01-04T11:02:37.932Z,101859.92
2019-01-04T11:05:27.485Z,101855.79
2019-01-04T11:08:17.475Z,101848.42
2019-01-04T11:11:07.605Z,101842.89
2019-01-04T11:13:57.516Z,101840.58
2019-01-04T11:16:47.306Z,101822.80
2019-01-04T11:19:37.337Z,101822.19
2019-01-04T11:23:35.529Z,101836.58
2019-01-04T11:26:35.427Z,101825.25
2019-01-04T11:30:10.219Z,101802.41
2019-01-04T11:33:46.076Z,101794.55
2019-01-04T11:37:18.961Z,101791.06
2019-01-04T11:41:18.386Z,101782.53
2019-01-04T11:44:33.339Z,101772.63
2019-01-04T11:48:07.746Z,101759.69
2019-01-04T11:51:19.863Z,101755.49
2019-01-04T11:54:18.959Z,101744.28
2019-01-04T11:57:08.823Z,101741.42
2019-01-04T11:59:59.087Z,101741.13
2019-01-04T12:02:49.171Z,101740.32
2019-01-04T12:05:39.445Z,101744.17
2019-01-04T12:08:29.064Z,101743.17
2019-01-04T12:11:18.858Z,101743.81
2019-01-04T12:14:08.895Z,101736.11
2019-01-04T12:16:58.484Z,101723.03
2019-01-04T12:19:48.806Z,101725.39
2019-01-04T12:22:38.667Z,101712.65
2019-01-04T12:25:28.768Z,101704.42
2019-01-04T12:28:18.726Z,101702.54
2019-01-04T12:31:09.587Z,101703.03
2019-01-04T12:33:59.598Z,101693.16
2019-01-04T12:36:49.330Z,101696.81
2019-01-04T12:39:39.666Z,101688.78
2019-01-04T12:42:29.427Z,101686.41
2019-01-04T12:45:19.202Z,101676.35
2019-01-04T12:48:08.960Z,101669.97
2019-01-04T12:50:59.054Z,101669.16
2019-01-04T12:53:49.023Z,101658.21
2019-01-04T12:56:38.990Z,101642.66
2019-01-04T12:59:28.942Z,101639.45
2019-01-04T13:02:19.254Z,101637.13
2019-01-04T13:05:09.115Z,101626.73
2019-01-04T13:08:02.096Z,101623.05
2019-01-04T13:10:53.583Z,101628.05
2019-01-04T13:13:43.437Z,101612.97
2019-01-04T13:16:33.411Z,101599.22
2019-01-04T13:19:25.785Z,101602.73
2019-01-04T13:22:15.824Z,101600.22
2019-01-04T13:25:07.008Z,101578.06
2019-01-04T13:27:56.791Z,101567.69
2019-01-04T13:30:46.972Z,101564.52
2019-01-04T13:33:40.477Z,101570.88
2019-01-04T13:36:30.638Z,101577.92
2019-01-04T13:39:20.511Z,101577.73
2019-01-04T13:42:10.993Z,101582.25
2019-01-04T13:45:01.089Z,101596.13
2019-01-04T13:47:51.267Z,101597.66
2019-01-04T13:50:40.763Z,101591.42
2019-01-04T13:53:30.851Z,101602.16
2019-01-04T13:56:21.250Z,101603.23
2019-01-04T13:59:11.029Z,101597.73
2019-01-04T14:02:01.057Z,101605.28
2019-01-04T14:04:51.099Z,101608.81
2019-01-04T14:07:40.888Z,101611.01
2019-01-04T14:10:30.744Z,101608.16
2019-01-04T14:13:20.923Z,101606.50
2019-01-04T14:16:10.836Z,101618.74
2019-01-04T14:19:00.714Z,101615.71
2019-01-04T14:21:51.899Z,101613.06
2019-01-04T14:24:41.915Z,101616.73
2019-01-04T14:27:32.178Z,101618.11
2019-01-04T14:30:22.823Z,101610.57
2019-01-04T14:33:12.827Z,101617.63
2019-01-04T14:36:03.290Z,101606.55
2019-01-04T14:38:53.556Z,101585.64
2019-01-04T14:41:43.616Z,101581.94
2019-01-04T14:44:33.991Z,101587.97
2019-01-04T14:47:24.342Z,101583.77
2019-01-04T14:50:14.425Z,101582.78
2019-01-04T14:53:04.386Z,101577.39
2019-01-04T14:55:54.625Z,101585.11
2019-01-04T14:58:45.526Z,101578.23
2019-01-04T15:01:35.366Z,101575.03
2019-01-04T15:04:25.148Z,101575.38
2019-01-04T15:07:14.907Z,101573.02
2019-01-04T15:10:05.069Z,101573.86
2019-01-04T15:12:55.417Z,101563.31
2019-01-04T15:15:45.426Z,101559.13
2019-01-04T15:18:35.603Z,101558.09
2019-01-04T15:21:25.592Z,101555.55
2019-01-04T15:24:15.349Z,101555.72
2019-01-04T15:27:05.220Z,101551.18
2019-01-04T15:29:55.342Z,101552.37
2019-01-04T15:32:45.600Z,101546.00
2019-01-04T15:35:35.457Z,101558.33
2019-01-04T15:38:25.546Z,101554.80
2019-01-04T15:41:15.194Z,101549.27
2019-01-04T15:44:05.260Z,101545.61
2019-01-04T15:46:54.486Z,101538.73
2019-01-04T15:49:45.385Z,101536.55
2019-01-04T15:52:35.099Z,101536.23
2019-01-04T15:55:24.730Z,101535.55
2019-01-04T15:58:14.617Z,101525.52
2019-01-04T16:01:05.050Z,101511.95
2019-01-04T16:03:54.909Z,101513.95
2019-01-04T16:06:45.155Z,101503.08
2019-01-04T16:09:34.724Z,101505.08
2019-01-04T16:12:24.954Z,101495.88
2019-01-04T16:15:14.519Z,101491.16
2019-01-04T16:18:05.615Z,101490.17
2019-01-04T16:20:54.731Z,101489.19
2019-01-04T16:23:45.095Z,101489.15
2019-01-04T16:26:34.416Z,101490.66
2019-01-04T16:29:26.694Z,101490.00
2019-01-04T16:32:16.704Z,101496.02
2019-01-04T16:35:06.826Z,101484.81
2019-01-04T16:37:56.486Z,101485.98
2019-01-04T16:40:46.185Z,101479.95
2019-01-04T16:43:36.291Z,101475.13
2019-01-04T16:46:26.125Z,101477.10
2019-01-04T16:49:16.202Z,101452.38
2019-01-04T16:52:06.827Z,101470.77
2019-01-04T16:54:56.574Z,101471.61
2019-01-04T16:57:46.787Z,101474.95
2019-01-04T17:00:37.130Z,101463.75
2019-01-04T17:03:27.154Z,101463.64
2019-01-04T17:06:17.259Z,101476.65
2019-01-04T17:09:09.067Z,101466.98
2019-01-04T17:11:59.097Z,101463.15
2019-01-04T17:14:49.318Z,101453.95
2019-01-04T17:17:40.523Z,101449.44
2019-01-04T17:20:31.116Z,101455.28
2019-01-04T17:23:21.055Z,101458.80
2019-01-04T17:26:11.309Z,101453.09
2019-01-04T17:29:01.329Z,101468.03
2019-01-04T17:31:51.758Z,101467.19
2019-01-04T17:34:41.723Z,101462.34
2019-01-04T17:37:31.769Z,101451.28
2019-01-04T17:40:21.395Z,101461.33
2019-01-04T17:43:11.632Z,101467.03
2019-01-04T17:46:01.866Z,101468.36
2019-01-04T17:48:51.888Z,101471.71
2019-01-04T17:51:42.374Z,101468.70
2019-01-04T17:54:32.651Z,101465.68
2019-01-04T17:57:22.448Z,101464.86
2019-01-04T18:00:13.788Z,101468.35
2019-01-04T18:03:04.183Z,101471.21
2019-01-04T18:05:54.184Z,101459.32
2019-01-04T18:08:44.132Z,101473.06
2019-01-04T18:11:33.663Z,101476.72
2019-01-04T18:14:23.480Z,101470.55
2019-01-04T18:17:14.817Z,101469.87
2019-01-04T18:20:06.988Z,101470.03
2019-01-04T18:23:04.307Z,101488.48
2019-01-04T18:25:54.679Z,101483.61
2019-01-04T18:28:44.536Z,101488.13
2019-01-04T18:31:34.719Z,101492.14
2019-01-04T18:34:25.068Z,101491.14
2019-01-04T18:37:14.628Z,101475.04
2019-01-04T18:40:09.655Z,101474.23
2019-01-04T18:42:59.832Z,101468.69
2019-01-04T18:45:49.784Z,101466.31
2019-01-04T18:48:39.542Z,101473.87
2019-01-04T18:51:29.484Z,101470.87
2019-01-04T18:54:21.039Z,101466.50
2019-01-04T18:57:11.209Z,101465.50
2019-01-04T19:00:02.149Z,101472.05
2019-01-04T19:02:52.445Z,101465.02
2019-01-04T19:05:42.653Z,101471.37
2019-01-04T19:08:34.014Z,101470.38
2019-01-04T19:11:24.438Z,101473.54
2019-01-04T19:14:14.646Z,101475.39
2019-01-04T19:17:06.067Z,101480.42
2019-01-04T19:19:56.598Z,101475.36
2019-01-04T19:22:47.560Z,101481.23
2019-01-04T19:25:37.584Z,101470.70
2019-01-04T19:28:27.483Z,101471.69
2019-01-04T19:31:18.204Z,101477.20
2019-01-04T19:34:08.439Z,101477.02
2019-01-04T19:36:58.377Z,101474.34
2019-01-04T19:39:48.723Z,101471.33
2019-01-04T19:42:40.409Z,101465.46
2019-01-04T19:45:30.494Z,101467.47
2019-01-04T19:48:20.789Z,101465.61
2019-01-04T19:51:10.475Z,101467.80
2019-01-04T19:54:00.036Z,101469.30
2019-01-04T19:56:49.726Z,101469.97
2019-01-04T19:59:40.011Z,101459.89
2019-01-04T20:02:29.517Z,101451.52
2019-01-04T20:05:46.938Z,101450.17
2019-01-04T20:10:29.631Z,101459.56
2019-01-04T20:14:50.735Z,101449.48
2019-01-04T20:18:00.103Z,101448.14
2019-01-04T20:21:07.737Z,101439.06
2019-01-04T20:24:09.047Z,101444.97
2019-01-04T20:27:19.136Z,101442.94
2019-01-04T20:30:37.198Z,101440.92
2019-01-04T20:34:02.892Z,101439.44
2019-01-04T20:37:23.813Z,101437.25
2019-01-04T20:40:31.784Z,101441.77
2019-01-04T20:43:34.362Z,101438.43
2019-01-04T20:46:50.913Z,101439.59
2019-01-04T20:50:01.857Z,101432.21
2019-01-04T20:53:08.569Z,101425.66
2019-01-04T20:56:23.226Z,101417.24
2019-01-04T20:59:28.834Z,101415.88
2019-01-04T21:02:44.839Z,101420.41
2019-01-04T21:05:49.487Z,101416.91
2019-01-04T21:09:10.787Z,101417.91
2019-01-04T21:12:27.933Z,100983.52
2019-01-04T21:15:35.925Z,101408.83
2019-01-04T21:18:59.177Z,101402.98
2019-01-04T21:22:20.264Z,101392.25
2019-01-04T21:25:23.087Z,101380.05
2019-01-04T21:28:30.897Z,101373.48
2019-01-04T21:31:51.451Z,101368.31
2019-01-04T21:35:01.833Z,101366.97
2019-01-04T21:38:09.571Z,101358.78
2019-01-04T21:41:09.671Z,101354.58
2019-01-04T21:44:17.244Z,101357.91
2019-01-04T21:47:24.704Z,101347.37
2019-01-04T21:50:34.299Z,101348.39
2019-01-04T21:53:37.312Z,101343.03
2019-01-04T21:56:53.177Z,101339.84
2019-01-04T22:00:00.851Z,101337.33
2019-01-04T22:03:13.690Z,101334.13
2019-01-04T22:06:25.831Z,101334.82
2019-01-04T22:09:33.308Z,101328.61
2019-01-04T22:12:42.547Z,101320.04
2019-01-04T22:15:51.329Z,101325.25
2019-01-04T22:19:15.089Z,101318.38
2019-01-04T22:22:23.204Z,101320.38
2019-01-04T22:25:30.891Z,101319.38
2019-01-04T22:28:39.940Z,101312.98
2019-01-04T22:31:53.863Z,101314.17
2019-01-04T22:35:01.052Z,101315.48
2019-01-04T22:38:09.129Z,101303.44
2019-01-04T22:41:16.764Z,101304.44
2019-01-04T22:44:34.728Z,101295.89
2019-01-04T22:47:52.357Z,101303.56
2019-01-04T22:51:07.404Z,101299.70
2019-01-04T22:54:14.944Z,101283.45
2019-01-04T22:57:22.533Z,101276.36
2019-01-04T23:00:37.892Z,101280.04
2019-01-04T23:03:50.593Z,101270.66
2019-01-04T23:06:58.203Z,101263.13
2019-01-04T23:10:05.905Z,101250.52
2019-01-04T23:13:24.012Z,101254.73
2019-01-04T23:16:24.494Z,101249.56
2019-01-04T23:19:32.001Z,101245.19
2019-01-04T23:23:09.757Z,101239.48
2019-01-04T23:26:19.561Z,101235.80
2019-01-04T23:29:24.599Z,101243.85
2019-01-04T23:32:30.433Z,101226.06
2019-01-04T23:35:36.102Z,101234.61
2019-01-04T23:38:50.787Z,101227.38
2019-01-04T23:42:16.696Z,101223.87
2019-01-04T23:45:24.982Z,101225.34
2019-01-04T23:48:43.871Z,101218.12
2019-01-04T23:51:46.957Z,101220.01
2019-01-04T23:54:53.054Z,101214.98
2019-01-04T23:57:57.735Z,101211.66
